Nearby METAR Reports

 

KSJC - San Jose, California, USA
Distance from station: NE 14km
Actualización: 04/10/2022 01:53
Despejado
Despejado
 Viento del NNO
Viento: NNO 22 km/h
Temperatura: 22°C
Rocío: 12°C
Humedad: 53%
Barómetro: 1015.9 hPa
Clouds: Despejado
Visibilidad: 16 km
2022/10/03 23:53 KSJC 032353Z 33012KT 10SM CLR 22/12 A3000 RMK AO2 SLP157 T02220122 10239 20200 56010 $
KNUQ - Moffett Nas/Mtn, California, USA
Distance from station: N 14km
Actualización: 04/10/2022 01:55
Despejado
Despejado
 Viento del NNO
Viento: NNO 20 km/h, Racha: 33 km/h
Temperatura: 20°C
Rocío: 13°C
Humedad: 64%
Barómetro: 1015.9 hPa
Clouds: Despejado
Visibilidad: 14 km
2022/10/03 23:55 KNUQ 032355Z AUTO 33011G18KT 9SM CLR 20/13 A3000 RMK AO2
 
KPAO - Palo Alto, California, USA
Distance from station: NNO 23km
Actualización: 04/10/2022 01:47
Despejado
Despejado
 Viento del N
Viento: N 0 km/h
Temperatura: 21°C
Rocío: 13°C
Humedad: 60%
Barómetro: 1015.9 hPa
Clouds: Despejado
Visibilidad: 16 km
2022/10/03 23:47 KPAO 032347Z 3315G21KT 10SM SKC 21/13 A3000
KRHV - San Jose/Reid, California, USA
Distance from station: ENE 19km
Actualización: 04/10/2022 01:50
Despejado
Despejado
 Viento del ONO
Viento: ONO 20 km/h
Temperatura: 23°C
Rocío: 13°C
Humedad: 53%
Barómetro: 1015.9 hPa
Clouds: Despejado
Visibilidad: 16 km
2022/10/03 23:50 KRHV 032350Z 30011KT 10SM SKC 23/13 A3000
 
KOAK - Oakland, California, USA
Distance from station: NNO 50km
Actualización: 04/10/2022 01:53
Despejado
Despejado
 Viento del O
Viento: O 22 km/h
Temperatura: 20°C
Rocío: 13°C
Humedad: 64%
Barómetro: 1016.3 hPa
Clouds: Despejado
Visibilidad: 16 km
2022/10/03 23:53 KOAK 032353Z 27012KT 10SM CLR 20/13 A3001 RMK AO2 SLP162 T02000128 10222 20194 56010
KSQL - San Carlos Airpo, California, USA
Distance from station: NO 34km
Actualización: 04/10/2022 01:47
Despejado
Despejado
 Viento del O
Viento: O 28 km/h
Temperatura: 22°C
Rocío: 12°C
Humedad: 53%
Barómetro: 1016.3 hPa
Clouds: Despejado
Visibilidad: 16 km
2022/10/03 23:47 KSQL 032347Z 26015KT 10SM CLR 22/12 A3001
 
KSFO - San Francisco, California, USA
Distance from station: NO 49km
Actualización: 04/10/2022 01:56
Despejado
Despejado
 Viento del O
Viento: O 33 km/h
Temperatura: 19°C
Rocío: 12°C
Humedad: 64%
Barómetro: 1016.3 hPa
Clouds: Despejado
Visibilidad: 16 km
2022/10/03 23:56 KSFO 032356Z 28018KT 10SM CLR 19/12 A3001 RMK AO2 PK WND 28026/2341 SLP162 T01940122 10217 20194 56009
KE16 - San Martin, California, USA
Distance from station: ESE 43km
Actualización: 04/10/2022 01:55
Despejado
Despejado
 Viento del NNO
Viento: NNO 22 km/h, Racha: 31 km/h
Temperatura: 25°C
Rocío: 12°C
Humedad: 44%
Barómetro: 1015.6 hPa
Clouds: Despejado
Visibilidad: 16 km
2022/10/03 23:55 KE16 032355Z AUTO 33012G17KT 10SM CLR 25/12 A2999 RMK AO2 PWINO PNO
 
KWVI - Watsonville, California, USA
Distance from station: SSE 44km
Actualización: 04/10/2022 01:53
Despejado
Despejado
 Viento del varies
Viento: varies 7 km/h
Temperatura: 22°C
Rocío: 13°C
Humedad: 57%
Barómetro: 1015.9 hPa
Clouds: Despejado
Visibilidad: 16 km
2022/10/03 23:53 KWVI 032353Z AUTO VRB04KT 10SM CLR 22/13 A3000 RMK AO2 SLP157 T02220128 10228 20194 56012
KHAF - Half Moon Bay, California, USA
Distance from station: ONO 50km
Actualización: 04/10/2022 01:55
Despejado
Despejado
 Viento del NNO
Viento: NNO 26 km/h
Temperatura: 18°C
Rocío: 14°C
Humedad: 78%
Barómetro: 1017.3 hPa
Clouds: Despejado
Visibilidad: 13 km
2022/10/03 23:55 KHAF 032355Z AUTO 33014KT 8SM CLR 18/14 A3004 RMK AO2
 
KHWD - Hayward, California, USA
Distance from station: N 44km
Actualización: 04/10/2022 01:54
Despejado
Despejado
 Viento del ONO
Viento: ONO 22 km/h
Temperatura: 20°C
Rocío: 13°C
Humedad: 64%
Barómetro: 1016.3 hPa
Clouds: Despejado
Visibilidad: 16 km
2022/10/03 23:54 KHWD 032354Z 29012KT 10SM CLR 20/13 A3001 RMK AO2 SLP171 T02000128 10228 20189 56008
KLVK - Livermore, California, USA
Distance from station: NNE 51km
Actualización: 04/10/2022 01:53
Despejado
Despejado
 Viento del ONO
Viento: ONO 24 km/h
Temperatura: 24°C
Rocío: 12°C
Humedad: 47%
Barómetro: 1014.9 hPa
Clouds: Despejado
Visibilidad: 16 km
2022/10/03 23:53 KLVK 032353Z 30013KT 10SM CLR 24/12 A2997 RMK AO2 SLP146 T02390122 10272 20200 56011